Holladay, Tennessee
Current Conditions -  °F | °C
As of 3:55 PM on Saturday 25 Oct 2014 (Local Time) from KPVE Reporting Station
Scattered Clouds Scattered Clouds  
Wind Chill: 81°   Ceiling: Unl
Heat Index: 82°   Visibility: 10mi
Dew Point: 63°   Wind: 8mph
Humidity: 54%   Direction: 270°W
Pressure: 30"   Gusts: NA
Location:  35.87°N, 88.15°W
Report Text: KPVE 252055Z AUTO 27007KT 10SM SCT055 27/17 A3000 RMK
Loading
Personal Weather Stations






























Interactive Weather Map
Tropical Storm Tracking
New forecast layout! Learn more

10-Day Weather Forecast

Advertisements
Track Severe Weather on mobile